sensor_id;sensor_type;location;lat;lon;timestamp;temperature;humidity
33255;DHT22;19623;52.482;9.762;2023-03-31T00:01:24;12.20;99.90
33255;DHT22;19623;52.482;9.762;2023-03-31T00:03:49;12.20;99.90
33255;DHT22;19623;52.482;9.762;2023-03-31T00:06:15;12.20;99.90
33255;DHT22;19623;52.482;9.762;2023-03-31T00:08:45;12.20;99.90
33255;DHT22;19623;52.482;9.762;2023-03-31T00:11:11;12.10;99.90
33255;DHT22;19623;52.482;9.762;2023-03-31T00:13:37;12.10;99.90
33255;DHT22;19623;52.482;9.762;2023-03-31T00:16:05;12.10;99.90
33255;DHT22;19623;52.482;9.762;2023-03-31T00:18:31;12.10;99.90
33255;DHT22;19623;52.482;9.762;2023-03-31T00:21:13;12.10;99.90
33255;DHT22;19623;52.482;9.762;2023-03-31T00:23:58;12.20;99.90
33255;DHT22;19623;52.482;9.762;2023-03-31T00:26:24;12.20;99.90
33255;DHT22;19623;52.482;9.762;2023-03-31T00:28:51;12.10;99.90
33255;DHT22;19623;52.482;9.762;2023-03-31T00:31:18;12.10;99.90
33255;DHT22;19623;52.482;9.762;2023-03-31T00:33:43;12.00;99.90
33255;DHT22;19623;52.482;9.762;2023-03-31T00:36:09;12.00;99.90
33255;DHT22;19623;52.482;9.762;2023-03-31T00:38:35;12.00;99.90
33255;DHT22;19623;52.482;9.762;2023-03-31T00:41:01;12.00;99.90
33255;DHT22;19623;52.482;9.762;2023-03-31T00:43:32;12.00;99.90
33255;DHT22;19623;52.482;9.762;2023-03-31T00:46:19;11.90;99.90
33255;DHT22;19623;52.482;9.762;2023-03-31T00:48:49;11.90;99.90
33255;DHT22;19623;52.482;9.762;2023-03-31T00:51:16;11.80;99.90
33255;DHT22;19623;52.482;9.762;2023-03-31T00:53:43;11.70;99.90
33255;DHT22;19623;52.482;9.762;2023-03-31T00:56:13;11.50;99.90
33255;DHT22;19623;52.482;9.762;2023-03-31T00:58:40;11.40;99.90
33255;DHT22;19623;52.482;9.762;2023-03-31T01:01:14;11.50;99.90
33255;DHT22;19623;52.482;9.762;2023-03-31T01:03:41;11.40;99.90
33255;DHT22;19623;52.482;9.762;2023-03-31T01:06:12;11.40;99.90
33255;DHT22;19623;52.482;9.762;2023-03-31T01:08:40;11.30;99.90
33255;DHT22;19623;52.482;9.762;2023-03-31T01:11:09;11.20;99.90
33255;DHT22;19623;52.482;9.762;2023-03-31T01:13:38;11.10;99.90
33255;DHT22;19623;52.482;9.762;2023-03-31T01:16:04;11.20;99.90
33255;DHT22;19623;52.482;9.762;2023-03-31T01:18:30;11.20;99.90
33255;DHT22;19623;52.482;9.762;2023-03-31T01:24:22;11.30;99.90
33255;DHT22;19623;52.482;9.762;2023-03-31T01:30:09;11.40;99.90
33255;DHT22;19623;52.482;9.762;2023-03-31T01:46:57;11.20;99.90
33255;DHT22;19623;52.482;9.762;2023-03-31T01:49:38;11.20;99.90
33255;DHT22;19623;52.482;9.762;2023-03-31T01:52:36;11.20;99.90
33255;DHT22;19623;52.482;9.762;2023-03-31T01:55:08;11.00;99.90
33255;DHT22;19623;52.482;9.762;2023-03-31T01:57:52;11.00;99.90
33255;DHT22;19623;52.482;9.762;2023-03-31T02:00:24;10.90;99.90
33255;DHT22;19623;52.482;9.762;2023-03-31T02:03:03;10.70;99.90
33255;DHT22;19623;52.482;9.762;2023-03-31T02:05:34;10.60;99.90
33255;DHT22;19623;52.482;9.762;2023-03-31T02:08:23;10.50;99.90
33255;DHT22;19623;52.482;9.762;2023-03-31T02:10:52;10.40;99.90
33255;DHT22;19623;52.482;9.762;2023-03-31T02:13:20;10.30;99.90
33255;DHT22;19623;52.482;9.762;2023-03-31T02:15:52;10.20;99.90
33255;DHT22;19623;52.482;9.762;2023-03-31T02:18:21;10.10;99.90
33255;DHT22;19623;52.482;9.762;2023-03-31T02:20:52;10.00;99.90
33255;DHT22;19623;52.482;9.762;2023-03-31T02:23:23;9.90;99.90
33255;DHT22;19623;52.482;9.762;2023-03-31T02:25:54;9.90;99.90
33255;DHT22;19623;52.482;9.762;2023-03-31T02:28:24;9.90;99.90
33255;DHT22;19623;52.482;9.762;2023-03-31T02:31:15;9.90;99.90
33255;DHT22;19623;52.482;9.762;2023-03-31T02:33:43;10.00;99.90
33255;DHT22;19623;52.482;9.762;2023-03-31T02:36:09;10.00;99.90
33255;DHT22;19623;52.482;9.762;2023-03-31T02:38:38;10.00;99.90
33255;DHT22;19623;52.482;9.762;2023-03-31T02:41:06;10.00;99.90
33255;DHT22;19623;52.482;9.762;2023-03-31T02:43:32;9.90;99.90
33255;DHT22;19623;52.482;9.762;2023-03-31T02:45:58;9.90;99.90
33255;DHT22;19623;52.482;9.762;2023-03-31T02:48:28;9.80;99.90
33255;DHT22;19623;52.482;9.762;2023-03-31T02:51:00;9.70;99.90
33255;DHT22;19623;52.482;9.762;2023-03-31T03:05:31;9.80;99.90
33255;DHT22;19623;52.482;9.762;2023-03-31T03:14:31;9.60;99.90
33255;DHT22;19623;52.482;9.762;2023-03-31T03:17:13;9.70;99.90
33255;DHT22;19623;52.482;9.762;2023-03-31T03:19:41;9.70;99.90
33255;DHT22;19623;52.482;9.762;2023-03-31T03:22:07;9.70;99.90
33255;DHT22;19623;52.482;9.762;2023-03-31T03:24:33;9.70;99.90
33255;DHT22;19623;52.482;9.762;2023-03-31T03:26:59;9.70;99.90
33255;DHT22;19623;52.482;9.762;2023-03-31T03:29:26;9.70;99.90
33255;DHT22;19623;52.482;9.762;2023-03-31T03:31:52;9.70;99.90
33255;DHT22;19623;52.482;9.762;2023-03-31T03:34:18;9.70;99.90
33255;DHT22;19623;52.482;9.762;2023-03-31T03:36:45;9.70;99.90
33255;DHT22;19623;52.482;9.762;2023-03-31T03:39:11;9.80;99.90
33255;DHT22;19623;52.482;9.762;2023-03-31T03:41:37;9.70;99.90
33255;DHT22;19623;52.482;9.762;2023-03-31T03:44:03;9.80;99.90
33255;DHT22;19623;52.482;9.762;2023-03-31T03:46:29;9.90;99.90
33255;DHT22;19623;52.482;9.762;2023-03-31T03:48:54;9.90;99.90
33255;DHT22;19623;52.482;9.762;2023-03-31T03:51:21;10.00;99.90
33255;DHT22;19623;52.482;9.762;2023-03-31T03:53:46;10.00;99.90
33255;DHT22;19623;52.482;9.762;2023-03-31T03:56:12;9.90;99.90
33255;DHT22;19623;52.482;9.762;2023-03-31T03:58:38;9.90;99.90
33255;DHT22;19623;52.482;9.762;2023-03-31T04:01:04;9.80;99.90
33255;DHT22;19623;52.482;9.762;2023-03-31T04:03:30;9.70;99.90
33255;DHT22;19623;52.482;9.762;2023-03-31T04:05:56;9.70;99.90
33255;DHT22;19623;52.482;9.762;2023-03-31T04:08:22;9.70;99.90
33255;DHT22;19623;52.482;9.762;2023-03-31T04:10:50;9.60;99.90
33255;DHT22;19623;52.482;9.762;2023-03-31T04:13:18;9.60;99.90
33255;DHT22;19623;52.482;9.762;2023-03-31T04:15:44;9.60;99.90
33255;DHT22;19623;52.482;9.762;2023-03-31T04:18:10;9.80;99.90
33255;DHT22;19623;52.482;9.762;2023-03-31T04:20:46;9.80;99.90
33255;DHT22;19623;52.482;9.762;2023-03-31T04:23:20;9.90;99.90
33255;DHT22;19623;52.482;9.762;2023-03-31T04:25:51;10.00;99.90
33255;DHT22;19623;52.482;9.762;2023-03-31T04:28:16;10.10;99.90
33255;DHT22;19623;52.482;9.762;2023-03-31T04:30:42;10.20;99.90
33255;DHT22;19623;52.482;9.762;2023-03-31T04:33:08;10.30;99.90
33255;DHT22;19623;52.482;9.762;2023-03-31T04:35:33;10.20;99.90
33255;DHT22;19623;52.482;9.762;2023-03-31T04:38:22;10.20;99.90
33255;DHT22;19623;52.482;9.762;2023-03-31T04:40:50;10.30;99.90
33255;DHT22;19623;52.482;9.762;2023-03-31T04:43:18;10.20;99.90
33255;DHT22;19623;52.482;9.762;2023-03-31T04:45:44;10.20;99.90
33255;DHT22;19623;52.482;9.762;2023-03-31T04:48:10;10.20;99.90
33255;DHT22;19623;52.482;9.762;2023-03-31T04:50:37;10.10;99.90
33255;DHT22;19623;52.482;9.762;2023-03-31T04:53:03;10.00;99.90
33255;DHT22;19623;52.482;9.762;2023-03-31T04:55:29;10.00;99.90
33255;DHT22;19623;52.482;9.762;2023-03-31T04:57:55;10.10;99.90
33255;DHT22;19623;52.482;9.762;2023-03-31T05:00:22;10.20;99.90
33255;DHT22;19623;52.482;9.762;2023-03-31T05:02:48;10.30;99.90
33255;DHT22;19623;52.482;9.762;2023-03-31T05:05:13;10.30;99.90
33255;DHT22;19623;52.482;9.762;2023-03-31T05:07:39;10.40;99.90
33255;DHT22;19623;52.482;9.762;2023-03-31T05:10:06;10.50;99.90
33255;DHT22;19623;52.482;9.762;2023-03-31T05:12:38;10.50;99.90
33255;DHT22;19623;52.482;9.762;2023-03-31T05:15:05;10.40;99.90
33255;DHT22;19623;52.482;9.762;2023-03-31T05:17:33;10.40;99.90
33255;DHT22;19623;52.482;9.762;2023-03-31T05:19:59;10.50;99.90
33255;DHT22;19623;52.482;9.762;2023-03-31T05:22:25;10.40;99.90
33255;DHT22;19623;52.482;9.762;2023-03-31T05:24:51;10.50;99.90
33255;DHT22;19623;52.482;9.762;2023-03-31T05:27:18;10.50;99.90
33255;DHT22;19623;52.482;9.762;2023-03-31T05:29:46;10.40;99.90
33255;DHT22;19623;52.482;9.762;2023-03-31T05:32:12;10.40;99.90
33255;DHT22;19623;52.482;9.762;2023-03-31T05:34:37;10.50;99.90
33255;DHT22;19623;52.482;9.762;2023-03-31T05:37:03;10.50;99.90
33255;DHT22;19623;52.482;9.762;2023-03-31T05:39:29;10.50;99.90
33255;DHT22;19623;52.482;9.762;2023-03-31T05:41:58;10.70;99.90
33255;DHT22;19623;52.482;9.762;2023-03-31T05:44:24;10.70;99.90
33255;DHT22;19623;52.482;9.762;2023-03-31T05:46:50;10.70;99.90
33255;DHT22;19623;52.482;9.762;2023-03-31T05:49:16;10.60;99.90
33255;DHT22;19623;52.482;9.762;2023-03-31T05:51:42;10.70;99.90
33255;DHT22;19623;52.482;9.762;2023-03-31T05:54:07;10.80;99.90
33255;DHT22;19623;52.482;9.762;2023-03-31T05:56:33;10.80;99.90
33255;DHT22;19623;52.482;9.762;2023-03-31T05:59:02;10.80;99.90
33255;DHT22;19623;52.482;9.762;2023-03-31T06:01:27;10.80;99.90
33255;DHT22;19623;52.482;9.762;2023-03-31T06:03:54;10.80;99.90
33255;DHT22;19623;52.482;9.762;2023-03-31T06:06:21;10.80;99.90
33255;DHT22;19623;52.482;9.762;2023-03-31T06:08:47;10.80;99.90
33255;DHT22;19623;52.482;9.762;2023-03-31T06:11:15;10.90;99.90
33255;DHT22;19623;52.482;9.762;2023-03-31T06:13:41;10.90;99.90
33255;DHT22;19623;52.482;9.762;2023-03-31T06:16:09;10.90;99.90
33255;DHT22;19623;52.482;9.762;2023-03-31T06:18:35;10.90;99.90
33255;DHT22;19623;52.482;9.762;2023-03-31T06:21:01;11.00;99.90
33255;DHT22;19623;52.482;9.762;2023-03-31T06:23:27;10.90;99.90
33255;DHT22;19623;52.482;9.762;2023-03-31T06:25:57;11.10;99.90
33255;DHT22;19623;52.482;9.762;2023-03-31T06:28:23;11.00;99.90
33255;DHT22;19623;52.482;9.762;2023-03-31T06:30:49;11.10;99.90
33255;DHT22;19623;52.482;9.762;2023-03-31T06:33:14;11.00;99.90
33255;DHT22;19623;52.482;9.762;2023-03-31T06:35:40;11.00;99.90
33255;DHT22;19623;52.482;9.762;2023-03-31T06:38:06;11.00;99.90
33255;DHT22;19623;52.482;9.762;2023-03-31T06:40:32;11.00;99.90
33255;DHT22;19623;52.482;9.762;2023-03-31T06:42:58;10.90;99.90
33255;DHT22;19623;52.482;9.762;2023-03-31T06:45:24;11.00;99.90
33255;DHT22;19623;52.482;9.762;2023-03-31T06:47:50;11.00;99.90
33255;DHT22;19623;52.482;9.762;2023-03-31T06:50:16;11.00;99.90
33255;DHT22;19623;52.482;9.762;2023-03-31T06:52:41;11.10;99.90
33255;DHT22;19623;52.482;9.762;2023-03-31T06:55:26;11.10;99.90
33255;DHT22;19623;52.482;9.762;2023-03-31T06:58:05;11.10;99.90
33255;DHT22;19623;52.482;9.762;2023-03-31T07:00:32;11.10;99.90
33255;DHT22;19623;52.482;9.762;2023-03-31T07:02:58;11.00;99.90
33255;DHT22;19623;52.482;9.762;2023-03-31T07:05:26;11.00;99.90
33255;DHT22;19623;52.482;9.762;2023-03-31T07:07:53;11.10;99.90
33255;DHT22;19623;52.482;9.762;2023-03-31T07:10:19;11.10;99.90
33255;DHT22;19623;52.482;9.762;2023-03-31T07:12:45;11.20;99.90
33255;DHT22;19623;52.482;9.762;2023-03-31T07:15:11;11.20;99.90
33255;DHT22;19623;52.482;9.762;2023-03-31T07:17:37;11.20;99.90
33255;DHT22;19623;52.482;9.762;2023-03-31T07:20:07;11.30;99.90
33255;DHT22;19623;52.482;9.762;2023-03-31T07:22:48;11.40;99.90
33255;DHT22;19623;52.482;9.762;2023-03-31T07:25:19;11.50;99.90
33255;DHT22;19623;52.482;9.762;2023-03-31T07:27:45;11.50;99.90
33255;DHT22;19623;52.482;9.762;2023-03-31T07:30:16;11.60;99.90
33255;DHT22;19623;52.482;9.762;2023-03-31T07:32:45;11.60;99.90
33255;DHT22;19623;52.482;9.762;2023-03-31T07:35:11;11.70;99.90
33255;DHT22;19623;52.482;9.762;2023-03-31T07:37:42;11.70;99.90
33255;DHT22;19623;52.482;9.762;2023-03-31T07:40:11;11.70;99.90
33255;DHT22;19623;52.482;9.762;2023-03-31T07:42:37;11.70;99.90
33255;DHT22;19623;52.482;9.762;2023-03-31T07:45:03;11.70;99.90
33255;DHT22;19623;52.482;9.762;2023-03-31T07:47:30;11.70;99.90
33255;DHT22;19623;52.482;9.762;2023-03-31T07:49:56;11.60;99.90
33255;DHT22;19623;52.482;9.762;2023-03-31T07:52:22;11.60;99.90
33255;DHT22;19623;52.482;9.762;2023-03-31T07:54:48;11.60;99.90
33255;DHT22;19623;52.482;9.762;2023-03-31T07:57:14;11.50;99.90
33255;DHT22;19623;52.482;9.762;2023-03-31T07:59:41;11.50;99.90
33255;DHT22;19623;52.482;9.762;2023-03-31T08:02:09;11.50;99.90
33255;DHT22;19623;52.482;9.762;2023-03-31T08:04:35;11.50;99.90
33255;DHT22;19623;52.482;9.762;2023-03-31T08:07:01;11.50;99.90
33255;DHT22;19623;52.482;9.762;2023-03-31T08:09:26;11.50;99.90
33255;DHT22;19623;52.482;9.762;2023-03-31T08:11:52;11.50;99.90
33255;DHT22;19623;52.482;9.762;2023-03-31T08:14:18;11.50;99.90
33255;DHT22;19623;52.482;9.762;2023-03-31T08:16:43;11.60;99.90
33255;DHT22;19623;52.482;9.762;2023-03-31T08:19:09;11.80;99.90
33255;DHT22;19623;52.482;9.762;2023-03-31T08:21:35;11.80;99.90
33255;DHT22;19623;52.482;9.762;2023-03-31T08:24:00;11.90;99.90
33255;DHT22;19623;52.482;9.762;2023-03-31T08:26:26;12.00;99.90
33255;DHT22;19623;52.482;9.762;2023-03-31T08:28:52;12.10;99.90
33255;DHT22;19623;52.482;9.762;2023-03-31T08:31:20;12.10;99.90
33255;DHT22;19623;52.482;9.762;2023-03-31T08:33:46;12.00;99.90
33255;DHT22;19623;52.482;9.762;2023-03-31T08:36:12;12.00;99.90
33255;DHT22;19623;52.482;9.762;2023-03-31T08:38:40;12.00;99.90
33255;DHT22;19623;52.482;9.762;2023-03-31T08:41:29;12.00;99.90
33255;DHT22;19623;52.482;9.762;2023-03-31T08:44:00;12.00;99.90
33255;DHT22;19623;52.482;9.762;2023-03-31T08:46:29;12.00;99.90
33255;DHT22;19623;52.482;9.762;2023-03-31T08:48:58;12.00;99.90
33255;DHT22;19623;52.482;9.762;2023-03-31T08:51:30;12.10;99.90
33255;DHT22;19623;52.482;9.762;2023-03-31T08:54:03;12.20;99.90
33255;DHT22;19623;52.482;9.762;2023-03-31T08:56:36;12.30;99.90
33255;DHT22;19623;52.482;9.762;2023-03-31T08:59:05;12.40;99.90
33255;DHT22;19623;52.482;9.762;2023-03-31T09:10:42;12.40;99.90
33255;DHT22;19623;52.482;9.762;2023-03-31T09:13:52;12.40;99.90
33255;DHT22;19623;52.482;9.762;2023-03-31T09:16:12;12.50;99.90
33255;DHT22;19623;52.482;9.762;2023-03-31T09:18:40;12.50;99.90
33255;DHT22;19623;52.482;9.762;2023-03-31T09:24:12;12.60;99.90
33255;DHT22;19623;52.482;9.762;2023-03-31T09:27:04;12.70;99.90
33255;DHT22;19623;52.482;9.762;2023-03-31T09:32:28;12.70;99.90
33255;DHT22;19623;52.482;9.762;2023-03-31T09:35:19;12.70;99.90
33255;DHT22;19623;52.482;9.762;2023-03-31T09:37:46;12.70;99.90
33255;DHT22;19623;52.482;9.762;2023-03-31T09:40:18;12.60;99.90
33255;DHT22;19623;52.482;9.762;2023-03-31T09:43:09;12.60;99.90
33255;DHT22;19623;52.482;9.762;2023-03-31T09:45:38;12.50;99.90
33255;DHT22;19623;52.482;9.762;2023-03-31T09:48:10;12.30;99.90
33255;DHT22;19623;52.482;9.762;2023-03-31T09:50:49;12.30;99.90
33255;DHT22;19623;52.482;9.762;2023-03-31T09:56:52;12.20;99.90
33255;DHT22;19623;52.482;9.762;2023-03-31T09:59:19;12.20;99.90
33255;DHT22;19623;52.482;9.762;2023-03-31T10:01:46;12.20;99.90
33255;DHT22;19623;52.482;9.762;2023-03-31T10:04:28;12.20;99.90
33255;DHT22;19623;52.482;9.762;2023-03-31T10:06:54;12.20;99.90
33255;DHT22;19623;52.482;9.762;2023-03-31T10:09:24;12.30;99.90
33255;DHT22;19623;52.482;9.762;2023-03-31T10:11:56;12.20;99.90
33255;DHT22;19623;52.482;9.762;2023-03-31T10:15:00;12.10;99.90
33255;DHT22;19623;52.482;9.762;2023-03-31T10:17:21;12.20;99.90
33255;DHT22;19623;52.482;9.762;2023-03-31T10:19:49;12.20;99.90
33255;DHT22;19623;52.482;9.762;2023-03-31T10:22:37;12.30;99.90
33255;DHT22;19623;52.482;9.762;2023-03-31T10:25:15;12.30;99.90
33255;DHT22;19623;52.482;9.762;2023-03-31T10:27:44;12.40;99.90
33255;DHT22;19623;52.482;9.762;2023-03-31T10:30:20;12.60;99.90
33255;DHT22;19623;52.482;9.762;2023-03-31T10:32:47;12.70;99.90
33255;DHT22;19623;52.482;9.762;2023-03-31T10:35:25;12.70;99.90
33255;DHT22;19623;52.482;9.762;2023-03-31T10:37:57;12.60;99.90
33255;DHT22;19623;52.482;9.762;2023-03-31T10:40:26;12.70;99.90
33255;DHT22;19623;52.482;9.762;2023-03-31T10:43:14;12.60;99.90
33255;DHT22;19623;52.482;9.762;2023-03-31T10:45:47;12.60;99.90
33255;DHT22;19623;52.482;9.762;2023-03-31T10:48:38;12.60;99.90
33255;DHT22;19623;52.482;9.762;2023-03-31T10:51:26;12.60;99.90
33255;DHT22;19623;52.482;9.762;2023-03-31T10:53:54;12.60;99.90
33255;DHT22;19623;52.482;9.762;2023-03-31T10:56:30;12.60;99.90
33255;DHT22;19623;52.482;9.762;2023-03-31T11:01:56;12.50;99.90
33255;DHT22;19623;52.482;9.762;2023-03-31T11:07:37;12.50;99.90
33255;DHT22;19623;52.482;9.762;2023-03-31T11:10:40;12.60;99.90
33255;DHT22;19623;52.482;9.762;2023-03-31T11:13:25;12.70;99.90
33255;DHT22;19623;52.482;9.762;2023-03-31T11:16:17;12.80;99.90
33255;DHT22;19623;52.482;9.762;2023-03-31T11:21:59;13.00;99.90
33255;DHT22;19623;52.482;9.762;2023-03-31T11:24:29;13.00;99.90
33255;DHT22;19623;52.482;9.762;2023-03-31T11:29:34;12.80;99.90
33255;DHT22;19623;52.482;9.762;2023-03-31T11:37:51;12.80;99.90
33255;DHT22;19623;52.482;9.762;2023-03-31T11:43:05;13.10;99.90
33255;DHT22;19623;52.482;9.762;2023-03-31T11:45:36;13.10;99.90
33255;DHT22;19623;52.482;9.762;2023-03-31T11:48:04;13.10;99.90
33255;DHT22;19623;52.482;9.762;2023-03-31T11:50:32;13.30;99.90
33255;DHT22;19623;52.482;9.762;2023-03-31T11:53:06;13.40;99.90
33255;DHT22;19623;52.482;9.762;2023-03-31T11:55:37;13.50;99.90
33255;DHT22;19623;52.482;9.762;2023-03-31T11:58:14;13.70;99.90
33255;DHT22;19623;52.482;9.762;2023-03-31T12:00:43;13.60;99.90
33255;DHT22;19623;52.482;9.762;2023-03-31T12:05:44;13.50;99.90
33255;DHT22;19623;52.482;9.762;2023-03-31T12:11:08;13.50;99.90
33255;DHT22;19623;52.482;9.762;2023-03-31T12:13:38;13.50;99.90
33255;DHT22;19623;52.482;9.762;2023-03-31T12:21:21;13.40;99.90
33255;DHT22;19623;52.482;9.762;2023-03-31T12:23:46;13.40;99.90
33255;DHT22;19623;52.482;9.762;2023-03-31T12:31:45;13.50;99.90
33255;DHT22;19623;52.482;9.762;2023-03-31T12:34:12;13.50;99.90
33255;DHT22;19623;52.482;9.762;2023-03-31T12:39:29;13.50;99.90
33255;DHT22;19623;52.482;9.762;2023-03-31T12:42:06;13.70;99.90
33255;DHT22;19623;52.482;9.762;2023-03-31T12:47:37;13.90;99.90
33255;DHT22;19623;52.482;9.762;2023-03-31T12:50:12;14.00;99.90
33255;DHT22;19623;52.482;9.762;2023-03-31T12:52:46;14.10;99.90
33255;DHT22;19623;52.482;9.762;2023-03-31T12:57:44;14.30;99.90
33255;DHT22;19623;52.482;9.762;2023-03-31T13:02:39;14.60;99.90
33255;DHT22;19623;52.482;9.762;2023-03-31T13:07:50;14.70;99.90
33255;DHT22;19623;52.482;9.762;2023-03-31T13:12:41;14.80;99.90
33255;DHT22;19623;52.482;9.762;2023-03-31T13:15:21;14.80;99.90
33255;DHT22;19623;52.482;9.762;2023-03-31T13:17:58;14.80;99.90
33255;DHT22;19623;52.482;9.762;2023-03-31T13:20:37;14.90;99.90
33255;DHT22;19623;52.482;9.762;2023-03-31T13:27:55;15.10;99.90
33255;DHT22;19623;52.482;9.762;2023-03-31T13:35:34;15.20;99.90
33255;DHT22;19623;52.482;9.762;2023-03-31T13:38:24;15.20;99.90
33255;DHT22;19623;52.482;9.762;2023-03-31T13:43:47;15.10;99.90
33255;DHT22;19623;52.482;9.762;2023-03-31T13:46:24;15.00;99.90
33255;DHT22;19623;52.482;9.762;2023-03-31T13:59:55;15.10;99.90
33255;DHT22;19623;52.482;9.762;2023-03-31T14:07:07;14.90;99.90
33255;DHT22;19623;52.482;9.762;2023-03-31T14:09:34;14.80;99.90
33255;DHT22;19623;52.482;9.762;2023-03-31T14:12:00;14.70;99.90
33255;DHT22;19623;52.482;9.762;2023-03-31T14:14:26;14.60;99.90
33255;DHT22;19623;52.482;9.762;2023-03-31T14:16:58;14.60;99.90
33255;DHT22;19623;52.482;9.762;2023-03-31T14:22:06;14.70;99.90
33255;DHT22;19623;52.482;9.762;2023-03-31T14:24:41;14.60;99.90
33255;DHT22;19623;52.482;9.762;2023-03-31T14:29:43;14.70;99.90
33255;DHT22;19623;52.482;9.762;2023-03-31T14:32:18;14.70;99.90
33255;DHT22;19623;52.482;9.762;2023-03-31T14:37:24;14.90;99.90
33255;DHT22;19623;52.482;9.762;2023-03-31T14:39:52;15.10;99.90
33255;DHT22;19623;52.482;9.762;2023-03-31T14:42:28;15.20;99.90
33255;DHT22;19623;52.482;9.762;2023-03-31T14:45:00;15.60;99.90
33255;DHT22;19623;52.482;9.762;2023-03-31T14:47:26;15.60;99.90
33255;DHT22;19623;52.482;9.762;2023-03-31T14:52:28;15.80;99.90
33255;DHT22;19623;52.482;9.762;2023-03-31T14:54:54;15.80;99.90
33255;DHT22;19623;52.482;9.762;2023-03-31T14:57:22;15.80;99.90
33255;DHT22;19623;52.482;9.762;2023-03-31T14:59:50;15.80;99.90
33255;DHT22;19623;52.482;9.762;2023-03-31T15:02:17;15.70;99.90
33255;DHT22;19623;52.482;9.762;2023-03-31T15:04:44;15.60;99.90
33255;DHT22;19623;52.482;9.762;2023-03-31T15:07:13;15.60;99.90
33255;DHT22;19623;52.482;9.762;2023-03-31T15:09:40;15.50;99.90
33255;DHT22;19623;52.482;9.762;2023-03-31T15:12:12;15.50;99.90
33255;DHT22;19623;52.482;9.762;2023-03-31T15:14:44;15.40;99.90
33255;DHT22;19623;52.482;9.762;2023-03-31T15:17:18;15.30;99.90
33255;DHT22;19623;52.482;9.762;2023-03-31T15:19:44;15.10;99.90
33255;DHT22;19623;52.482;9.762;2023-03-31T15:22:11;15.10;99.90
33255;DHT22;19623;52.482;9.762;2023-03-31T15:24:38;15.00;99.90
33255;DHT22;19623;52.482;9.762;2023-03-31T15:29:36;14.90;99.90
33255;DHT22;19623;52.482;9.762;2023-03-31T15:32:04;14.80;99.90
33255;DHT22;19623;52.482;9.762;2023-03-31T15:34:31;14.80;99.90
33255;DHT22;19623;52.482;9.762;2023-03-31T15:36:58;14.40;99.90
33255;DHT22;19623;52.482;9.762;2023-03-31T15:39:25;14.20;99.90
33255;DHT22;19623;52.482;9.762;2023-03-31T15:41:51;14.00;99.90
33255;DHT22;19623;52.482;9.762;2023-03-31T15:44:28;13.90;99.90
33255;DHT22;19623;52.482;9.762;2023-03-31T15:46:56;13.90;99.90
33255;DHT22;19623;52.482;9.762;2023-03-31T15:49:27;13.80;99.90
33255;DHT22;19623;52.482;9.762;2023-03-31T15:51:54;13.80;99.90
33255;DHT22;19623;52.482;9.762;2023-03-31T15:54:34;13.70;99.90
33255;DHT22;19623;52.482;9.762;2023-03-31T15:57:04;13.80;99.90
33255;DHT22;19623;52.482;9.762;2023-03-31T15:59:31;13.80;99.90
33255;DHT22;19623;52.482;9.762;2023-03-31T16:02:09;13.80;99.90
33255;DHT22;19623;52.482;9.762;2023-03-31T16:04:36;13.70;99.90
33255;DHT22;19623;52.482;9.762;2023-03-31T16:07:03;13.70;99.90
33255;DHT22;19623;52.482;9.762;2023-03-31T16:11:59;13.70;99.90
33255;DHT22;19623;52.482;9.762;2023-03-31T16:16:59;13.70;99.90
33255;DHT22;19623;52.482;9.762;2023-03-31T16:19:26;13.60;99.90
33255;DHT22;19623;52.482;9.762;2023-03-31T16:21:55;13.60;99.90
33255;DHT22;19623;52.482;9.762;2023-03-31T16:24:32;13.60;99.90
33255;DHT22;19623;52.482;9.762;2023-03-31T16:27:02;13.60;99.90
33255;DHT22;19623;52.482;9.762;2023-03-31T16:29:32;13.40;99.90
33255;DHT22;19623;52.482;9.762;2023-03-31T16:32:07;13.30;99.90
33255;DHT22;19623;52.482;9.762;2023-03-31T16:34:34;13.30;99.90
33255;DHT22;19623;52.482;9.762;2023-03-31T16:37:00;13.20;99.90
33255;DHT22;19623;52.482;9.762;2023-03-31T16:39:32;13.10;99.90
33255;DHT22;19623;52.482;9.762;2023-03-31T16:41:57;13.10;99.90
33255;DHT22;19623;52.482;9.762;2023-03-31T16:44:23;13.10;99.90
33255;DHT22;19623;52.482;9.762;2023-03-31T16:46:49;13.20;99.90
33255;DHT22;19623;52.482;9.762;2023-03-31T16:49:14;13.20;99.90
33255;DHT22;19623;52.482;9.762;2023-03-31T16:51:40;13.20;99.90
33255;DHT22;19623;52.482;9.762;2023-03-31T16:54:06;13.20;99.90
33255;DHT22;19623;52.482;9.762;2023-03-31T16:56:32;13.10;99.90
33255;DHT22;19623;52.482;9.762;2023-03-31T16:58:57;13.00;99.90
33255;DHT22;19623;52.482;9.762;2023-03-31T17:01:23;12.90;99.90
33255;DHT22;19623;52.482;9.762;2023-03-31T17:03:49;13.00;99.90
33255;DHT22;19623;52.482;9.762;2023-03-31T17:06:14;13.00;99.90
33255;DHT22;19623;52.482;9.762;2023-03-31T17:08:40;13.00;99.90
33255;DHT22;19623;52.482;9.762;2023-03-31T17:11:07;13.00;99.90
33255;DHT22;19623;52.482;9.762;2023-03-31T17:13:35;13.00;99.90
33255;DHT22;19623;52.482;9.762;2023-03-31T17:16:01;12.90;99.90
33255;DHT22;19623;52.482;9.762;2023-03-31T17:18:26;12.90;99.90
33255;DHT22;19623;52.482;9.762;2023-03-31T17:20:52;12.80;99.90
33255;DHT22;19623;52.482;9.762;2023-03-31T17:23:21;12.70;99.90
33255;DHT22;19623;52.482;9.762;2023-03-31T17:25:49;12.70;99.90
33255;DHT22;19623;52.482;9.762;2023-03-31T17:28:16;12.60;99.90
33255;DHT22;19623;52.482;9.762;2023-03-31T17:30:42;12.50;99.90
33255;DHT22;19623;52.482;9.762;2023-03-31T17:33:12;12.40;99.90
33255;DHT22;19623;52.482;9.762;2023-03-31T17:35:38;12.30;99.90
33255;DHT22;19623;52.482;9.762;2023-03-31T17:38:03;12.20;99.90
33255;DHT22;19623;52.482;9.762;2023-03-31T17:40:29;12.10;99.90
33255;DHT22;19623;52.482;9.762;2023-03-31T17:42:58;12.00;99.90
33255;DHT22;19623;52.482;9.762;2023-03-31T17:45:23;11.90;99.90
33255;DHT22;19623;52.482;9.762;2023-03-31T17:47:49;11.90;99.90
33255;DHT22;19623;52.482;9.762;2023-03-31T17:50:16;11.80;99.90
33255;DHT22;19623;52.482;9.762;2023-03-31T17:52:42;11.70;99.90
33255;DHT22;19623;52.482;9.762;2023-03-31T17:55:08;11.60;99.90
33255;DHT22;19623;52.482;9.762;2023-03-31T17:57:34;11.60;99.90
33255;DHT22;19623;52.482;9.762;2023-03-31T18:00:02;11.50;99.90
33255;DHT22;19623;52.482;9.762;2023-03-31T18:02:27;11.50;99.90
33255;DHT22;19623;52.482;9.762;2023-03-31T18:04:53;11.50;99.90
33255;DHT22;19623;52.482;9.762;2023-03-31T18:07:19;11.40;99.90
33255;DHT22;19623;52.482;9.762;2023-03-31T18:09:47;11.50;99.90
33255;DHT22;19623;52.482;9.762;2023-03-31T18:12:12;11.50;99.90
33255;DHT22;19623;52.482;9.762;2023-03-31T18:14:38;11.60;99.90
33255;DHT22;19623;52.482;9.762;2023-03-31T18:17:04;11.60;99.90
33255;DHT22;19623;52.482;9.762;2023-03-31T18:19:30;11.70;99.90
33255;DHT22;19623;52.482;9.762;2023-03-31T18:21:56;11.60;99.90
33255;DHT22;19623;52.482;9.762;2023-03-31T18:24:21;11.60;99.90